EZY19D EDDF-EGLL
Flight info
| Callsign | EZY19D |
|---|---|
| Flight time | 1h 9m |
| Altitude | 36000 |
| Route | OBOKA3W/25C OBOKA Z29 TORNU DCT ABNED L980 LOGAN |
| Aircraft | A320/M-SDE3FGHIRWY/LB1 |
Departure
| Time | 2026-05-05 10:46 |
|---|---|
| Airport | Frankfurt Main Airport (EDDF) |
Arrival
| Time | 2026-05-05 11:55 |
|---|---|
| Airport | London Heathrow Airport (EGLL) |
| Time | Latitude | Longitude | Altitude | Speed | Heading |
|---|---|---|---|---|---|
| 2026-05-05 10:11 | 50.04737 | 8.56737 | 361 ft | 0 kts | 115° |
| 2026-05-05 10:21 | 50.04737 | 8.56736 | 356 ft | 0 kts | 115° |
| 2026-05-05 10:30 | 50.04744 | 8.56706 | 363 ft | 2 kts | 109° |
| 2026-05-05 10:30 | 50.04755 | 8.56675 | 365 ft | 4 kts | 154° |
| 2026-05-05 10:30 | 50.04779 | 8.56672 | 361 ft | 4 kts | 200° |
| 2026-05-05 10:30 | 50.04788 | 8.56678 | 358 ft | 0 kts | 205° |
| 2026-05-05 10:37 | 50.04787 | 8.56678 | 358 ft | 1 kts | 205° |
| 2026-05-05 10:37 | 50.04756 | 8.56652 | 359 ft | 7 kts | 217° |
| 2026-05-05 10:37 | 50.04729 | 8.56602 | 359 ft | 5 kts | 231° |
| 2026-05-05 10:38 | 50.04710 | 8.56562 | 359 ft | 4 kts | 230° |
| 2026-05-05 10:38 | 50.04691 | 8.56541 | 360 ft | 3 kts | 210° |
| 2026-05-05 10:38 | 50.04677 | 8.56531 | 357 ft | 4 kts | 205° |
| 2026-05-05 10:38 | 50.04614 | 8.56485 | 356 ft | 12 kts | 205° |
| 2026-05-05 10:39 | 50.04542 | 8.56432 | 356 ft | 11 kts | 210° |
| 2026-05-05 10:39 | 50.04508 | 8.56346 | 362 ft | 9 kts | 249° |
| 2026-05-05 10:39 | 50.04473 | 8.56203 | 358 ft | 18 kts | 249° |
| 2026-05-05 10:39 | 50.04416 | 8.56036 | 356 ft | 17 kts | 206° |
| 2026-05-05 10:40 | 50.04306 | 8.56069 | 360 ft | 17 kts | 180° |
| 2026-05-05 10:40 | 50.04238 | 8.55945 | 358 ft | 16 kts | 236° |
| 2026-05-05 10:40 | 50.04140 | 8.55942 | 355 ft | 16 kts | 160° |
| 2026-05-05 10:40 | 50.04073 | 8.56053 | 351 ft | 16 kts | 78° |
| 2026-05-05 10:41 | 50.04112 | 8.56217 | 358 ft | 18 kts | 70° |
| 2026-05-05 10:41 | 50.04158 | 8.56414 | 356 ft | 21 kts | 69° |
| 2026-05-05 10:41 | 50.04211 | 8.56630 | 356 ft | 22 kts | 69° |
| 2026-05-05 10:41 | 50.04262 | 8.56845 | 363 ft | 21 kts | 70° |
| 2026-05-05 10:42 | 50.04368 | 8.57288 | 362 ft | 23 kts | 69° |
| 2026-05-05 10:42 | 50.04425 | 8.57526 | 361 ft | 24 kts | 70° |
| 2026-05-05 10:42 | 50.04483 | 8.57763 | 366 ft | 24 kts | 69° |
| 2026-05-05 10:43 | 50.04542 | 8.58011 | 364 ft | 25 kts | 72° |
| 2026-05-05 10:43 | 50.04602 | 8.58268 | 371 ft | 24 kts | 69° |
| 2026-05-05 10:43 | 50.04652 | 8.58489 | 370 ft | 17 kts | 83° |
| 2026-05-05 10:43 | 50.04600 | 8.58584 | 369 ft | 9 kts | 159° |
| 2026-05-05 10:44 | 50.04593 | 8.58588 | 369 ft | 0 kts | 159° |
| 2026-05-05 10:44 | 50.04587 | 8.58592 | 369 ft | 3 kts | 159° |
| 2026-05-05 10:44 | 50.04565 | 8.58605 | 372 ft | 2 kts | 159° |
| 2026-05-05 10:45 | 50.04533 | 8.58624 | 371 ft | 9 kts | 160° |
| 2026-05-05 10:45 | 50.04491 | 8.58603 | 370 ft | 7 kts | 243° |
| 2026-05-05 10:45 | 50.04455 | 8.58454 | 372 ft | 38 kts | 249° |
| 2026-05-05 10:45 | 50.04270 | 8.57673 | 362 ft | 108 kts | 250° |
| 2026-05-05 10:46 | 50.03949 | 8.56327 | 358 ft | 159 kts | 249° |
| 2026-05-05 10:46 | 50.03543 | 8.54617 | 758 ft | 169 kts | 250° |
| 2026-05-05 10:46 | 50.03126 | 8.52889 | 1420 ft | 171 kts | 249° |
| 2026-05-05 10:46 | 50.02701 | 8.51149 | 2062 ft | 172 kts | 249° |
| 2026-05-05 10:47 | 50.02227 | 8.49363 | 2433 ft | 191 kts | 242° |
| 2026-05-05 10:47 | 50.01196 | 8.47996 | 2764 ft | 206 kts | 196° |
| 2026-05-05 10:47 | 49.99753 | 8.47743 | 3339 ft | 214 kts | 179° |
| 2026-05-05 10:47 | 49.98257 | 8.47728 | 4171 ft | 212 kts | 184° |
| 2026-05-05 10:48 | 49.96804 | 8.47469 | 5058 ft | 211 kts | 188° |
| 2026-05-05 10:48 | 49.95367 | 8.46996 | 5756 ft | 219 kts | 198° |
| 2026-05-05 10:48 | 49.93856 | 8.46247 | 6223 ft | 239 kts | 198° |
| 2026-05-05 10:48 | 49.92293 | 8.45243 | 6850 ft | 247 kts | 212° |
| 2026-05-05 10:49 | 49.90991 | 8.43485 | 7608 ft | 251 kts | 229° |
| 2026-05-05 10:49 | 49.90018 | 8.41217 | 8414 ft | 255 kts | 238° |
| 2026-05-05 10:49 | 49.89150 | 8.38796 | 9210 ft | 260 kts | 246° |
| 2026-05-05 10:49 | 49.88664 | 8.36067 | 9899 ft | 270 kts | 262° |
| 2026-05-05 10:50 | 49.88688 | 8.33035 | 10166 ft | 293 kts | 274° |
| 2026-05-05 10:50 | 49.88871 | 8.29804 | 10381 ft | 317 kts | 275° |
| 2026-05-05 10:50 | 49.89438 | 8.26410 | 10770 ft | 334 kts | 292° |
| 2026-05-05 10:50 | 49.90633 | 8.23282 | 11421 ft | 341 kts | 305° |
| 2026-05-05 10:51 | 49.92053 | 8.20317 | 12155 ft | 344 kts | 304° |
| 2026-05-05 10:51 | 49.93485 | 8.17315 | 12916 ft | 348 kts | 306° |
| 2026-05-05 10:51 | 49.95166 | 8.14574 | 13612 ft | 354 kts | 317° |
| 2026-05-05 10:51 | 49.97046 | 8.12069 | 14230 ft | 358 kts | 317° |
| 2026-05-05 10:52 | 49.98946 | 8.09536 | 14825 ft | 362 kts | 317° |
| 2026-05-05 10:52 | 50.00866 | 8.06974 | 15421 ft | 366 kts | 317° |
| 2026-05-05 10:52 | 50.02802 | 8.04385 | 16012 ft | 369 kts | 317° |
| 2026-05-05 10:52 | 50.04762 | 8.01762 | 16605 ft | 373 kts | 316° |
| 2026-05-05 10:53 | 50.06713 | 7.99148 | 17182 ft | 377 kts | 316° |
| 2026-05-05 10:53 | 50.08706 | 7.96471 | 17743 ft | 381 kts | 316° |
| 2026-05-05 10:53 | 50.10721 | 7.93757 | 18300 ft | 384 kts | 316° |
| 2026-05-05 10:53 | 50.12753 | 7.91016 | 18813 ft | 388 kts | 316° |
| 2026-05-05 10:54 | 50.14799 | 7.88255 | 19336 ft | 390 kts | 316° |
| 2026-05-05 10:54 | 50.16853 | 7.85483 | 19896 ft | 392 kts | 316° |
| 2026-05-05 10:54 | 50.18922 | 7.82691 | 20445 ft | 394 kts | 316° |
| 2026-05-05 10:54 | 50.21003 | 7.79876 | 20967 ft | 397 kts | 316° |
| 2026-05-05 10:55 | 50.22388 | 7.78001 | 21300 ft | 400 kts | 316° |
| 2026-05-05 10:55 | 50.25268 | 7.74364 | 21968 ft | 406 kts | 324° |
| 2026-05-05 10:55 | 50.27763 | 7.72225 | 22484 ft | 411 kts | 334° |
| 2026-05-05 10:55 | 50.30396 | 7.70432 | 22990 ft | 415 kts | 335° |
| 2026-05-05 10:56 | 50.33044 | 7.68628 | 23451 ft | 417 kts | 335° |
| 2026-05-05 10:56 | 50.35718 | 7.66801 | 23870 ft | 420 kts | 334° |
| 2026-05-05 10:56 | 50.37492 | 7.65583 | 24141 ft | 422 kts | 334° |
| 2026-05-05 10:56 | 50.40189 | 7.63727 | 24551 ft | 424 kts | 334° |
| 2026-05-05 10:57 | 50.42899 | 7.61862 | 24953 ft | 426 kts | 334° |
| 2026-05-05 10:57 | 50.46503 | 7.59381 | 25461 ft | 429 kts | 334° |
| 2026-05-05 10:57 | 50.49234 | 7.57497 | 25866 ft | 431 kts | 333° |
| 2026-05-05 10:57 | 50.51984 | 7.55595 | 26235 ft | 433 kts | 333° |
| 2026-05-05 10:58 | 50.54746 | 7.53679 | 26610 ft | 434 kts | 332° |
| 2026-05-05 10:58 | 50.56513 | 7.52225 | 26841 ft | 433 kts | 326° |
| 2026-05-05 10:58 | 50.59050 | 7.49664 | 27203 ft | 433 kts | 323° |
| 2026-05-05 10:58 | 50.61578 | 7.47070 | 27563 ft | 435 kts | 323° |
| 2026-05-05 10:59 | 50.64119 | 7.44465 | 27959 ft | 437 kts | 324° |
| 2026-05-05 10:59 | 50.66671 | 7.41845 | 28319 ft | 439 kts | 323° |
| 2026-05-05 10:59 | 50.69239 | 7.39204 | 28663 ft | 440 kts | 323° |
| 2026-05-05 10:59 | 50.71747 | 7.36442 | 28990 ft | 439 kts | 317° |
| 2026-05-05 11:00 | 50.73962 | 7.33149 | 29317 ft | 437 kts | 308° |
| 2026-05-05 11:00 | 50.75795 | 7.29419 | 29623 ft | 434 kts | 299° |
| 2026-05-05 11:00 | 50.77276 | 7.25284 | 29924 ft | 433 kts | 294° |
| 2026-05-05 11:00 | 50.78656 | 7.21043 | 30185 ft | 434 kts | 293° |
| 2026-05-05 11:01 | 50.80039 | 7.16796 | 30444 ft | 435 kts | 293° |
| 2026-05-05 11:01 | 50.81423 | 7.12538 | 30677 ft | 436 kts | 293° |
| 2026-05-05 11:01 | 50.82805 | 7.08282 | 30918 ft | 437 kts | 293° |
| 2026-05-05 11:01 | 50.84196 | 7.03989 | 31254 ft | 436 kts | 293° |
| 2026-05-05 11:02 | 50.85572 | 6.99728 | 31555 ft | 435 kts | 292° |
| 2026-05-05 11:02 | 50.86943 | 6.95473 | 31892 ft | 434 kts | 292° |
| 2026-05-05 11:02 | 50.88289 | 6.91288 | 32256 ft | 432 kts | 292° |
| 2026-05-05 11:02 | 50.89655 | 6.87039 | 32778 ft | 430 kts | 292° |
| 2026-05-05 11:03 | 50.91007 | 6.82830 | 33214 ft | 427 kts | 292° |
| 2026-05-05 11:03 | 50.92352 | 6.78647 | 33588 ft | 425 kts | 291° |
| 2026-05-05 11:03 | 50.93690 | 6.74478 | 33931 ft | 423 kts | 291° |
| 2026-05-05 11:03 | 50.95017 | 6.70324 | 34201 ft | 422 kts | 291° |
| 2026-05-05 11:04 | 50.96341 | 6.66164 | 34435 ft | 422 kts | 291° |
| 2026-05-05 11:04 | 50.97662 | 6.62001 | 34645 ft | 423 kts | 291° |
| 2026-05-05 11:04 | 50.98960 | 6.57905 | 34824 ft | 425 kts | 290° |
| 2026-05-05 11:04 | 51.00291 | 6.53696 | 34934 ft | 427 kts | 290° |
| 2026-05-05 11:05 | 51.01624 | 6.49475 | 35096 ft | 428 kts | 290° |
| 2026-05-05 11:05 | 51.02939 | 6.45313 | 35279 ft | 428 kts | 291° |
| 2026-05-05 11:05 | 51.04280 | 6.41079 | 35470 ft | 429 kts | 291° |
| 2026-05-05 11:05 | 51.05620 | 6.36842 | 35649 ft | 429 kts | 291° |
| 2026-05-05 11:06 | 51.06956 | 6.32605 | 35834 ft | 429 kts | 291° |
| 2026-05-05 11:06 | 51.09610 | 6.24157 | 35891 ft | 426 kts | 291° |
| 2026-05-05 11:07 | 51.12242 | 6.15723 | 35903 ft | 425 kts | 291° |
| 2026-05-05 11:07 | 51.14487 | 6.07131 | 35893 ft | 419 kts | 279° |
| 2026-05-05 11:08 | 51.15940 | 5.98142 | 35896 ft | 420 kts | 279° |
| 2026-05-05 11:08 | 51.17397 | 5.89135 | 35894 ft | 420 kts | 279° |
| 2026-05-05 11:09 | 51.19149 | 5.80234 | 35911 ft | 425 kts | 288° |
| 2026-05-05 11:09 | 51.21437 | 5.71618 | 35917 ft | 424 kts | 288° |
| 2026-05-05 11:10 | 51.23722 | 5.62944 | 35929 ft | 424 kts | 288° |
| 2026-05-05 11:10 | 51.25999 | 5.54257 | 35923 ft | 425 kts | 288° |
| 2026-05-05 11:11 | 51.28281 | 5.45547 | 35923 ft | 425 kts | 288° |
| 2026-05-05 11:11 | 51.30541 | 5.36903 | 35912 ft | 425 kts | 288° |
| 2026-05-05 11:12 | 51.32806 | 5.28172 | 35919 ft | 425 kts | 288° |
| 2026-05-05 11:12 | 51.35055 | 5.19447 | 35915 ft | 425 kts | 288° |
| 2026-05-05 11:13 | 51.37300 | 5.10704 | 35912 ft | 425 kts | 288° |
| 2026-05-05 11:13 | 51.39533 | 5.01994 | 35929 ft | 425 kts | 288° |
| 2026-05-05 11:14 | 51.41773 | 4.93221 | 35932 ft | 426 kts | 288° |
| 2026-05-05 11:14 | 51.44013 | 4.84425 | 35937 ft | 426 kts | 288° |
| 2026-05-05 11:15 | 51.46248 | 4.75629 | 35955 ft | 426 kts | 288° |
| 2026-05-05 11:15 | 51.48476 | 4.66810 | 35939 ft | 426 kts | 288° |
| 2026-05-05 11:16 | 51.50676 | 4.58066 | 35939 ft | 425 kts | 288° |
| 2026-05-05 11:16 | 51.52876 | 4.49272 | 35936 ft | 424 kts | 288° |
| 2026-05-05 11:17 | 51.55069 | 4.40481 | 35934 ft | 424 kts | 288° |
| 2026-05-05 11:17 | 51.57252 | 4.31676 | 35931 ft | 424 kts | 288° |
| 2026-05-05 11:18 | 51.59408 | 4.22928 | 35927 ft | 424 kts | 288° |
| 2026-05-05 11:18 | 51.61578 | 4.14119 | 35927 ft | 424 kts | 288° |
| 2026-05-05 11:19 | 51.63753 | 4.05312 | 35935 ft | 424 kts | 288° |
| 2026-05-05 11:19 | 51.65918 | 3.96478 | 35943 ft | 424 kts | 288° |
| 2026-05-05 11:20 | 51.68056 | 3.87693 | 35946 ft | 424 kts | 287° |
| 2026-05-05 11:20 | 51.70200 | 3.78840 | 35957 ft | 424 kts | 288° |
| 2026-05-05 11:21 | 51.72341 | 3.69973 | 35951 ft | 425 kts | 288° |
| 2026-05-05 11:21 | 51.74480 | 3.61103 | 35955 ft | 425 kts | 288° |
| 2026-05-05 11:22 | 51.76614 | 3.52213 | 35971 ft | 424 kts | 288° |
| 2026-05-05 11:22 | 51.78718 | 3.43408 | 35974 ft | 423 kts | 288° |
| 2026-05-05 11:23 | 51.80832 | 3.34542 | 35983 ft | 423 kts | 288° |
| 2026-05-05 11:23 | 51.82928 | 3.25659 | 35983 ft | 423 kts | 288° |
| 2026-05-05 11:24 | 51.84469 | 3.16628 | 35974 ft | 418 kts | 274° |
| 2026-05-05 11:24 | 51.84284 | 3.07317 | 35968 ft | 415 kts | 262° |
| 2026-05-05 11:25 | 51.83676 | 2.98040 | 35962 ft | 415 kts | 262° |
| 2026-05-05 11:25 | 51.83067 | 2.88771 | 35967 ft | 415 kts | 263° |
| 2026-05-05 11:26 | 51.82450 | 2.79479 | 35958 ft | 416 kts | 262° |
| 2026-05-05 11:26 | 51.81823 | 2.70253 | 35958 ft | 416 kts | 262° |
| 2026-05-05 11:27 | 51.81188 | 2.60933 | 35950 ft | 417 kts | 262° |
| 2026-05-05 11:27 | 51.80548 | 2.51594 | 35758 ft | 420 kts | 262° |
| 2026-05-05 11:27 | 51.80214 | 2.46862 | 34735 ft | 428 kts | 262° |
| 2026-05-05 11:28 | 51.79871 | 2.42078 | 34032 ft | 428 kts | 262° |
| 2026-05-05 11:28 | 51.79534 | 2.37388 | 33370 ft | 424 kts | 262° |
| 2026-05-05 11:28 | 51.79195 | 2.32622 | 32735 ft | 420 kts | 262° |
| 2026-05-05 11:28 | 51.78870 | 2.28015 | 32137 ft | 417 kts | 262° |
| 2026-05-05 11:29 | 51.78541 | 2.23382 | 31521 ft | 414 kts | 261° |
| 2026-05-05 11:29 | 51.78221 | 2.18765 | 30856 ft | 413 kts | 262° |
| 2026-05-05 11:29 | 51.77940 | 2.14197 | 30390 ft | 408 kts | 262° |
| 2026-05-05 11:29 | 51.77681 | 2.09662 | 29890 ft | 403 kts | 262° |
| 2026-05-05 11:30 | 51.77433 | 2.05186 | 29405 ft | 398 kts | 262° |
| 2026-05-05 11:30 | 51.77187 | 2.00768 | 28966 ft | 392 kts | 262° |
| 2026-05-05 11:30 | 51.76936 | 1.96420 | 28533 ft | 386 kts | 262° |
| 2026-05-05 11:30 | 51.76680 | 1.92147 | 28121 ft | 381 kts | 262° |
| 2026-05-05 11:31 | 51.76421 | 1.87913 | 27686 ft | 377 kts | 262° |
| 2026-05-05 11:31 | 51.76164 | 1.83725 | 27275 ft | 373 kts | 262° |
| 2026-05-05 11:31 | 51.75909 | 1.79581 | 26863 ft | 369 kts | 262° |
| 2026-05-05 11:31 | 51.75660 | 1.75538 | 26458 ft | 365 kts | 262° |
| 2026-05-05 11:32 | 51.75407 | 1.71491 | 26058 ft | 362 kts | 262° |
| 2026-05-05 11:32 | 51.75153 | 1.67469 | 25646 ft | 359 kts | 262° |
| 2026-05-05 11:32 | 51.74899 | 1.63478 | 25220 ft | 356 kts | 261° |
| 2026-05-05 11:32 | 51.74649 | 1.59516 | 24779 ft | 355 kts | 262° |
| 2026-05-05 11:33 | 51.74397 | 1.55535 | 24222 ft | 359 kts | 261° |
| 2026-05-05 11:33 | 51.74140 | 1.51519 | 23674 ft | 360 kts | 261° |
| 2026-05-05 11:33 | 51.73879 | 1.47470 | 23079 ft | 368 kts | 261° |
| 2026-05-05 11:33 | 51.73609 | 1.43329 | 22521 ft | 373 kts | 262° |
| 2026-05-05 11:34 | 51.73338 | 1.39176 | 21966 ft | 373 kts | 263° |
| 2026-05-05 11:34 | 51.73067 | 1.35019 | 21402 ft | 372 kts | 263° |
| 2026-05-05 11:34 | 51.72799 | 1.30921 | 20853 ft | 372 kts | 262° |
| 2026-05-05 11:34 | 51.72528 | 1.26775 | 20318 ft | 372 kts | 262° |
| 2026-05-05 11:35 | 51.72259 | 1.22669 | 20028 ft | 364 kts | 263° |
| 2026-05-05 11:35 | 51.71992 | 1.18624 | 19647 ft | 361 kts | 263° |
| 2026-05-05 11:35 | 51.71725 | 1.14617 | 19228 ft | 358 kts | 263° |
| 2026-05-05 11:35 | 51.71457 | 1.10643 | 18803 ft | 356 kts | 263° |
| 2026-05-05 11:36 | 51.71188 | 1.06680 | 18383 ft | 355 kts | 263° |
| 2026-05-05 11:36 | 51.70916 | 1.02734 | 17933 ft | 353 kts | 263° |
| 2026-05-05 11:36 | 51.70643 | 0.98816 | 17482 ft | 351 kts | 263° |
| 2026-05-05 11:36 | 51.70374 | 0.94928 | 17055 ft | 348 kts | 263° |
| 2026-05-05 11:37 | 51.70113 | 0.91114 | 16646 ft | 346 kts | 264° |
| 2026-05-05 11:37 | 51.69848 | 0.87227 | 16220 ft | 344 kts | 264° |
| 2026-05-05 11:37 | 51.69590 | 0.83456 | 15808 ft | 342 kts | 264° |
| 2026-05-05 11:37 | 51.69326 | 0.79654 | 15411 ft | 340 kts | 264° |
| 2026-05-05 11:38 | 51.69056 | 0.75869 | 15021 ft | 338 kts | 264° |
| 2026-05-05 11:38 | 51.68785 | 0.72114 | 14621 ft | 337 kts | 264° |
| 2026-05-05 11:38 | 51.68517 | 0.68386 | 14374 ft | 331 kts | 264° |
| 2026-05-05 11:38 | 51.68257 | 0.64764 | 14251 ft | 321 kts | 264° |
| 2026-05-05 11:39 | 51.68004 | 0.61236 | 14061 ft | 314 kts | 264° |
| 2026-05-05 11:39 | 51.67751 | 0.57764 | 13775 ft | 311 kts | 264° |
| 2026-05-05 11:39 | 51.67500 | 0.54313 | 13446 ft | 309 kts | 264° |
| 2026-05-05 11:39 | 51.67254 | 0.50930 | 13092 ft | 307 kts | 264° |
| 2026-05-05 11:40 | 51.67002 | 0.47475 | 12728 ft | 305 kts | 264° |
| 2026-05-05 11:40 | 51.66762 | 0.44135 | 12385 ft | 304 kts | 264° |
| 2026-05-05 11:40 | 51.66520 | 0.40768 | 12044 ft | 302 kts | 264° |
| 2026-05-05 11:40 | 51.66277 | 0.37427 | 11709 ft | 300 kts | 264° |
| 2026-05-05 11:41 | 51.66030 | 0.34102 | 11379 ft | 298 kts | 264° |
| 2026-05-05 11:41 | 51.65785 | 0.30809 | 11041 ft | 296 kts | 264° |
| 2026-05-05 11:41 | 51.65539 | 0.27529 | 10692 ft | 294 kts | 264° |
| 2026-05-05 11:41 | 51.65295 | 0.24288 | 10358 ft | 292 kts | 264° |
| 2026-05-05 11:42 | 51.65049 | 0.21031 | 10026 ft | 291 kts | 264° |
| 2026-05-05 11:42 | 51.64852 | 0.17803 | 9669 ft | 289 kts | 265° |
| 2026-05-05 11:42 | 51.64687 | 0.14595 | 9306 ft | 287 kts | 266° |
| 2026-05-05 11:42 | 51.64525 | 0.11393 | 8933 ft | 286 kts | 266° |
| 2026-05-05 11:43 | 51.64373 | 0.08257 | 8555 ft | 284 kts | 266° |
| 2026-05-05 11:43 | 51.64219 | 0.05090 | 8160 ft | 283 kts | 266° |
| 2026-05-05 11:43 | 51.64064 | 0.01957 | 7968 ft | 281 kts | 266° |
| 2026-05-05 11:43 | 51.63908 | -0.01197 | 7996 ft | 283 kts | 266° |
| 2026-05-05 11:44 | 51.63747 | -0.04366 | 7993 ft | 284 kts | 266° |
| 2026-05-05 11:44 | 51.63605 | -0.07110 | 7999 ft | 283 kts | 266° |
| 2026-05-05 11:44 | 51.63448 | -0.10228 | 7997 ft | 273 kts | 266° |
| 2026-05-05 11:44 | 51.63299 | -0.13181 | 7998 ft | 256 kts | 266° |
| 2026-05-05 11:45 | 51.63162 | -0.15998 | 8000 ft | 251 kts | 266° |
| 2026-05-05 11:45 | 51.63025 | -0.18758 | 8003 ft | 251 kts | 266° |
| 2026-05-05 11:45 | 51.62880 | -0.21552 | 8004 ft | 251 kts | 266° |
| 2026-05-05 11:45 | 51.62739 | -0.24348 | 8003 ft | 251 kts | 266° |
| 2026-05-05 11:46 | 51.62591 | -0.27145 | 8003 ft | 251 kts | 266° |
| 2026-05-05 11:46 | 51.62446 | -0.29942 | 8003 ft | 251 kts | 266° |
| 2026-05-05 11:46 | 51.62300 | -0.32738 | 8004 ft | 250 kts | 266° |
| 2026-05-05 11:46 | 51.62159 | -0.35529 | 7976 ft | 251 kts | 266° |
| 2026-05-05 11:47 | 51.62014 | -0.38327 | 7977 ft | 251 kts | 266° |
| 2026-05-05 11:47 | 51.61872 | -0.41115 | 7977 ft | 250 kts | 266° |
| 2026-05-05 11:47 | 51.61733 | -0.43905 | 7969 ft | 250 kts | 266° |
| 2026-05-05 11:47 | 51.61586 | -0.46704 | 7978 ft | 251 kts | 266° |
| 2026-05-05 11:48 | 51.61294 | -0.52250 | 7911 ft | 250 kts | 266° |
| 2026-05-05 11:48 | 51.61140 | -0.55028 | 7580 ft | 249 kts | 266° |
| 2026-05-05 11:48 | 51.60992 | -0.57797 | 7241 ft | 248 kts | 266° |
| 2026-05-05 11:49 | 51.60799 | -0.60547 | 6901 ft | 247 kts | 255° |
| 2026-05-05 11:49 | 51.60072 | -0.63029 | 6549 ft | 246 kts | 238° |
| 2026-05-05 11:49 | 51.59145 | -0.65344 | 6187 ft | 246 kts | 236° |
| 2026-05-05 11:49 | 51.58200 | -0.67628 | 5784 ft | 247 kts | 236° |
| 2026-05-05 11:50 | 51.57244 | -0.69921 | 5427 ft | 246 kts | 236° |
| 2026-05-05 11:50 | 51.56322 | -0.72127 | 5287 ft | 236 kts | 236° |
| 2026-05-05 11:50 | 51.55389 | -0.74216 | 5157 ft | 225 kts | 224° |
| 2026-05-05 11:50 | 51.54093 | -0.75427 | 4983 ft | 212 kts | 191° |
| 2026-05-05 11:51 | 51.52671 | -0.75774 | 4840 ft | 203 kts | 183° |
| 2026-05-05 11:51 | 51.51277 | -0.75938 | 4625 ft | 199 kts | 181° |
| 2026-05-05 11:51 | 51.49925 | -0.75735 | 4352 ft | 193 kts | 152° |
| 2026-05-05 11:51 | 51.48908 | -0.74420 | 4068 ft | 188 kts | 126° |
| 2026-05-05 11:52 | 51.48116 | -0.72698 | 3605 ft | 199 kts | 115° |
| 2026-05-05 11:52 | 51.47665 | -0.70547 | 3069 ft | 209 kts | 92° |
| 2026-05-05 11:52 | 51.47643 | -0.68173 | 2594 ft | 213 kts | 85° |
| 2026-05-05 11:52 | 51.47662 | -0.65828 | 2265 ft | 209 kts | 85° |
| 2026-05-05 11:53 | 51.47677 | -0.63535 | 1970 ft | 201 kts | 86° |
| 2026-05-05 11:53 | 51.47688 | -0.61387 | 1712 ft | 190 kts | 86° |
| 2026-05-05 11:53 | 51.47700 | -0.59179 | 1437 ft | 195 kts | 86° |
| 2026-05-05 11:53 | 51.47710 | -0.57032 | 1183 ft | 188 kts | 85° |
| 2026-05-05 11:54 | 51.47717 | -0.55038 | 959 ft | 170 kts | 86° |
| 2026-05-05 11:54 | 51.47736 | -0.53233 | 809 ft | 152 kts | 86° |
| 2026-05-05 11:54 | 51.47752 | -0.51564 | 515 ft | 146 kts | 88° |
| 2026-05-05 11:54 | 51.47740 | -0.49977 | 288 ft | 139 kts | 86° |
| 2026-05-05 11:55 | 51.47749 | -0.48486 | 139 ft | 136 kts | 85° |
| 2026-05-05 11:55 | 51.47757 | -0.47108 | 90 ft | 98 kts | 89° |
| 2026-05-05 11:55 | 51.47758 | -0.46293 | 90 ft | 40 kts | 90° |
| 2026-05-05 11:55 | 51.47690 | -0.46130 | 87 ft | 0 kts | 143° |
| 2026-05-05 11:56 | 51.47687 | -0.46126 | 87 ft | 3 kts | 143° |
| 2026-05-05 11:56 | 51.47669 | -0.46105 | 86 ft | 3 kts | 143° |
| 2026-05-05 11:56 | 51.47655 | -0.46089 | 90 ft | 2 kts | 143° |
| 2026-05-05 11:56 | 51.47642 | -0.46073 | 87 ft | 7 kts | 144° |
| 2026-05-05 11:57 | 51.47596 | -0.45983 | 89 ft | 11 kts | 102° |
| 2026-05-05 11:57 | 51.47595 | -0.45861 | 87 ft | 12 kts | 88° |
| 2026-05-05 11:57 | 51.47596 | -0.45780 | 88 ft | 0 kts | 89° |
| 2026-05-05 11:58 | 51.47594 | -0.45767 | 86 ft | 3 kts | 92° |
| 2026-05-05 11:58 | 51.47595 | -0.45730 | 90 ft | 5 kts | 88° |
| 2026-05-05 11:58 | 51.47597 | -0.45588 | 86 ft | 16 kts | 89° |
| 2026-05-05 11:58 | 51.47596 | -0.45408 | 86 ft | 17 kts | 90° |
| 2026-05-05 11:59 | 51.47597 | -0.45208 | 86 ft | 19 kts | 90° |
| 2026-05-05 11:59 | 51.47599 | -0.44986 | 86 ft | 21 kts | 89° |
| 2026-05-05 11:59 | 51.47599 | -0.44816 | 86 ft | 13 kts | 90° |
| 2026-05-05 11:59 | 51.47580 | -0.44671 | 88 ft | 14 kts | 141° |
| 2026-05-05 12:00 | 51.47504 | -0.44610 | 88 ft | 12 kts | 118° |
| 2026-05-05 12:00 | 51.47442 | -0.44559 | 86 ft | 10 kts | 179° |
| 2026-05-05 12:00 | 51.47376 | -0.44559 | 86 ft | 8 kts | 180° |
| 2026-05-05 12:00 | 51.47346 | -0.44582 | 89 ft | 4 kts | 251° |
| 2026-05-05 12:01 | 51.47344 | -0.44623 | 86 ft | 3 kts | 269° |
| 2026-05-05 12:01 | 51.47345 | -0.44652 | 86 ft | 2 kts | 272° |
| 2026-05-05 12:01 | 51.47345 | -0.44678 | 86 ft | 2 kts | 271° |
| 2026-05-05 12:01 | 51.47345 | -0.44703 | 86 ft | 3 kts | 268° |
| 2026-05-05 12:02 | 51.47344 | -0.44718 | 86 ft | 0 kts | 269° |